Time;durP1;ratioP1;P1;durP2;ratioP2;P2;SDS_P1;SDS_P2;PMS_P1;PMS_P2;Temp;Humidity;BMP_temperature;BMP_pressure;BME280_temperature;BME280_humidity;BME280_pressure;Samples;Min_cycle;Max_cycle;Signal;HPM_P1;HPM_P2
2021/11/12 00:03:26;;;;;;;11.75;5.90;;;1.30;99.60;;;;;;2081031;28;20177;-65
2021/11/12 00:11:52;;;;;;;8.48;5.55;;;1.30;99.30;;;;;;2072744;28;20204;-65
2021/11/12 00:12:33;;;;;;;8.88;6.05;;;1.30;99.30;;;;;;2072772;28;20789;-65
2021/11/12 00:13:36;;;;;;;9.95;5.93;;;1.30;99.50;;;;;;2072825;28;20559;-65
2021/11/12 00:40:01;;;;;;;8.45;5.63;;;1.10;98.80;;;;;;2089817;28;20667;-64
2021/11/12 00:42:19;;;;;;;8.65;5.15;;;1.10;99.40;;;;;;2089537;28;20165;-64
2021/11/12 00:43:36;;;;;;;7.80;5.45;;;1.00;98.70;;;;;;2089495;28;20639;-64
2021/11/12 00:44:47;;;;;;;9.35;5.28;;;1.00;98.70;;;;;;2089548;28;20195;-65
2021/11/12 00:45:53;;;;;;;10.70;6.07;;;1.00;98.70;;;;;;2089650;28;20239;-65
2021/11/12 00:47:02;;;;;;;8.55;5.57;;;1.00;98.80;;;;;;2085189;28;20239;-65
2021/11/12 00:48:19;;;;;;;8.48;5.43;;;1.00;98.90;;;;;;2082518;28;20187;-64
2021/11/12 00:49:25;;;;;;;7.60;5.28;;;1.00;99.10;;;;;;2082441;28;20644;-65
2021/11/12 00:52:04;;;;;;;13.57;6.97;;;1.00;99.30;;;;;;2082271;28;20606;-65
2021/11/12 00:55:03;;;;;;;10.80;6.07;;;1.10;99.60;;;;;;2082289;28;20173;-64
2021/11/12 00:56:04;;;;;;;9.93;7.18;;;1.10;99.60;;;;;;2082342;28;20554;-65
2021/11/12 00:57:05;;;;;;;10.67;7.03;;;1.10;99.90;;;;;;2082294;28;20191;-64
2021/11/12 00:58:08;;;;;;;11.40;7.73;;;1.10;99.90;;;;;;2082298;28;20176;-65
2021/11/12 00:59:09;;;;;;;10.70;6.78;;;1.10;99.90;;;;;;2082287;28;20177;-64
2021/11/12 01:00:12;;;;;;;12.47;8.10;;;1.20;99.90;;;;;;2082421;28;20549;-65
2021/11/12 01:01:14;;;;;;;14.88;7.55;;;1.20;99.90;;;;;;2082173;28;20177;-64
2021/11/12 01:02:14;;;;;;;13.68;7.75;;;1.20;99.90;;;;;;2082306;28;20649;-65
2021/11/12 01:03:18;;;;;;;14.13;7.20;;;1.20;99.90;;;;;;2082219;28;20165;-64
2021/11/12 01:04:22;;;;;;;11.70;7.10;;;1.20;99.90;;;;;;2082166;28;20319;-64
2021/11/12 01:05:23;;;;;;;14.80;7.68;;;1.30;99.90;;;;;;2082185;28;20633;-65
2021/11/12 01:06:24;;;;;;;12.18;7.15;;;1.30;99.90;;;;;;2082271;28;20546;-64
2021/11/12 01:07:25;;;;;;;12.20;7.00;;;1.30;99.90;;;;;;2082293;28;20177;-64
2021/11/12 01:08:27;;;;;;;10.77;6.57;;;1.30;99.90;;;;;;2082157;28;20220;-65
2021/11/12 01:09:28;;;;;;;9.45;6.80;;;1.30;99.90;;;;;;2082052;28;20680;-65
2021/11/12 01:10:30;;;;;;;12.97;7.67;;;1.30;99.90;;;;;;2082301;28;20169;-64
2021/11/12 01:11:30;;;;;;;11.63;7.22;;;1.20;99.90;;;;;;2081866;28;20948;-65
2021/11/12 01:12:31;;;;;;;11.57;7.07;;;1.20;99.90;;;;;;2082174;28;20221;-64
2021/11/12 01:13:32;;;;;;;11.32;6.93;;;1.20;99.90;;;;;;2082160;28;20185;-65
2021/11/12 01:14:33;;;;;;;11.25;6.60;;;1.20;99.80;;;;;;2082165;28;20557;-64
2021/11/12 01:15:35;;;;;;;10.80;6.60;;;1.20;99.70;;;;;;2082103;28;20181;-65
2021/11/12 01:16:36;;;;;;;10.60;6.47;;;1.20;99.70;;;;;;2082289;28;20824;-65
2021/11/12 01:17:37;;;;;;;10.63;6.90;;;1.20;99.70;;;;;;2082091;28;20185;-64
2021/11/12 01:18:38;;;;;;;13.10;7.23;;;1.20;99.60;;;;;;2082028;28;20664;-66
2021/11/12 01:19:39;;;;;;;9.90;6.57;;;1.20;99.50;;;;;;2082218;28;20219;-64
2021/11/12 01:20:40;;;;;;;11.57;6.80;;;1.20;99.50;;;;;;2082041;28;20231;-65
2021/11/12 01:21:42;;;;;;;12.20;6.67;;;1.20;99.50;;;;;;2081787;28;20227;-65
2021/11/12 01:22:44;;;;;;;9.88;6.05;;;1.10;99.40;;;;;;2082265;28;20235;-64
2021/11/12 01:23:49;;;;;;;11.45;6.75;;;1.10;99.30;;;;;;2082105;28;20181;-64
2021/11/12 01:24:50;;;;;;;9.50;5.68;;;1.10;99.30;;;;;;2082191;28;20265;-64
2021/11/12 01:25:51;;;;;;;10.63;6.05;;;1.10;99.40;;;;;;2082009;28;20189;-64
2021/11/12 01:26:52;;;;;;;9.97;5.97;;;1.10;99.40;;;;;;2082010;28;20184;-65
2021/11/12 01:27:53;;;;;;;14.20;6.50;;;1.10;99.40;;;;;;2082019;28;20193;-65
2021/11/12 01:28:54;;;;;;;10.90;6.47;;;1.10;99.40;;;;;;2082054;28;20250;-64
2021/11/12 01:29:55;;;;;;;10.82;6.60;;;1.10;99.50;;;;;;2082106;28;20173;-64
2021/11/12 01:30:57;;;;;;;11.65;7.88;;;1.10;99.70;;;;;;2081986;28;20204;-64
2021/11/12 01:32:18;;;;;;;11.60;6.85;;;1.10;99.80;;;;;;2081299;28;20178;-64
2021/11/12 01:33:19;;;;;;;12.45;7.25;;;1.10;99.90;;;;;;2081658;28;20189;-64
2021/11/12 01:34:20;;;;;;;12.73;7.50;;;1.20;99.90;;;;;;2082199;28;20184;-65
2021/11/12 01:35:21;;;;;;;12.30;6.90;;;1.10;99.90;;;;;;2082032;28;20185;-65
2021/11/12 01:36:31;;;;;;;11.73;6.68;;;1.20;99.90;;;;;;2081987;28;20209;-65
2021/11/12 01:37:34;;;;;;;13.05;6.95;;;1.20;99.80;;;;;;2082150;28;20323;-65
2021/11/12 01:38:35;;;;;;;9.35;6.18;;;1.20;99.90;;;;;;2081637;28;20611;-66
2021/11/12 01:39:36;;;;;;;9.88;6.53;;;1.20;99.90;;;;;;2082125;28;20243;-65
2021/11/12 01:40:37;;;;;;;12.50;7.80;;;1.20;99.80;;;;;;2081974;28;20169;-66
2021/11/12 01:41:44;;;;;;;11.55;6.63;;;1.20;99.70;;;;;;2081669;28;20672;-66
2021/11/12 01:43:36;;;;;;;11.73;6.65;;;1.20;99.50;;;;;;2081883;28;20181;-65
2021/11/12 01:44:32;;;;;;;12.52;6.95;;;1.20;99.30;;;;;;2081878;28;20187;-65
2021/11/12 01:47:08;;;;;;;8.80;6.45;;;1.10;98.90;;;;;;2081921;28;20204;-65
2021/11/12 01:48:23;;;;;;;15.90;6.43;;;1.10;99.00;;;;;;2082028;28;20189;-65
2021/11/12 01:50:00;;;;;;;12.25;6.60;;;1.10;99.60;;;;;;2081934;28;20258;-65
2021/11/12 01:51:21;;;;;;;12.40;6.97;;;1.00;99.20;;;;;;2080645;28;20459;-65
2021/11/12 01:52:32;;;;;;;14.05;7.85;;;1.10;99.60;;;;;;2081649;28;20269;-64
2021/11/12 01:53:39;;;;;;;17.30;8.73;;;1.10;99.90;;;;;;2081840;28;20181;-66
2021/11/12 01:54:48;;;;;;;12.95;8.00;;;1.10;99.90;;;;;;2081939;28;20238;-64
2021/11/12 01:55:56;;;;;;;15.30;8.27;;;1.20;99.90;;;;;;2081753;28;20192;-64
2021/11/12 01:57:00;;;;;;;17.25;8.27;;;1.20;99.90;;;;;;2081343;28;20205;-65
2021/11/12 02:00:11;;;;;;;15.02;8.43;;;1.30;99.90;;;;;;2081735;28;20263;-64
2021/11/12 02:01:11;;;;;;;11.50;8.00;;;1.30;99.90;;;;;;2081692;28;20468;-65
2021/11/12 02:02:12;;;;;;;19.07;8.63;;;1.30;99.90;;;;;;2081709;28;20771;-65
2021/11/12 02:03:13;;;;;;;16.07;8.13;;;1.30;99.90;;;;;;2081657;28;20213;-65
2021/11/12 02:04:18;;;;;;;12.23;7.38;;;1.30;99.90;;;;;;2081745;28;20262;-65
2021/11/12 02:05:19;;;;;;;14.35;8.35;;;1.30;99.90;;;;;;2081753;28;20493;-65
2021/11/12 02:06:24;;;;;;;14.43;8.10;;;1.30;99.90;;;;;;2081733;28;20168;-65
2021/11/12 02:07:25;;;;;;;13.25;7.70;;;1.30;99.90;;;;;;2081758;28;20608;-64
2021/11/12 02:08:26;;;;;;;15.23;8.50;;;1.30;99.90;;;;;;2081471;28;20664;-64
2021/11/12 02:09:29;;;;;;;12.53;7.47;;;1.30;99.90;;;;;;2081758;28;20165;-64
2021/11/12 02:10:31;;;;;;;13.40;7.70;;;1.30;99.90;;;;;;2081645;28;20192;-64
2021/11/12 02:11:31;;;;;;;13.32;7.32;;;1.30;99.90;;;;;;2081176;28;20181;-66
2021/11/12 02:12:44;;;;;;;14.23;7.33;;;1.30;99.90;;;;;;2081367;28;20222;-64
2021/11/12 02:13:47;;;;;;;14.18;7.50;;;1.30;99.90;;;;;;2081694;28;20184;-65
2021/11/12 02:14:49;;;;;;;13.95;7.22;;;1.30;99.90;;;;;;2081665;28;20181;-65
2021/11/12 02:15:50;;;;;;;12.35;6.75;;;1.30;99.90;;;;;;2081735;28;20188;-65
2021/11/12 02:17:01;;;;;;;15.60;8.03;;;1.30;99.90;;;;;;2081641;28;20201;-65
2021/11/12 02:18:13;;;;;;;10.88;6.93;;;1.30;99.90;;;;;;2081646;28;20235;-65
2021/11/12 02:19:14;;;;;;;12.25;6.63;;;1.30;99.90;;;;;;2081644;28;20174;-64
2021/11/12 02:20:25;;;;;;;10.80;6.75;;;1.20;99.90;;;;;;2081520;28;20195;-64
2021/11/12 02:21:33;;;;;;;14.85;7.72;;;1.20;99.90;;;;;;2081534;28;20180;-64
2021/11/12 02:22:37;;;;;;;12.30;6.90;;;1.20;99.90;;;;;;2081596;28;20200;-64
2021/11/12 02:23:47;;;;;;;11.45;6.85;;;1.20;99.80;;;;;;2081564;28;20652;-64
2021/11/12 02:24:51;;;;;;;16.73;8.93;;;1.20;99.70;;;;;;2081358;28;20711;-65
2021/11/12 02:25:53;;;;;;;12.95;7.35;;;1.20;99.70;;;;;;2081365;28;20178;-65
2021/11/12 02:26:58;;;;;;;11.40;6.97;;;1.20;99.80;;;;;;2081621;28;20177;-65
2021/11/12 02:28:17;;;;;;;11.05;5.90;;;1.20;99.90;;;;;;2081646;28;20177;-64
2021/11/12 02:29:18;;;;;;;13.50;6.97;;;1.20;99.90;;;;;;2081563;28;20176;-65
2021/11/12 02:30:27;;;;;;;10.83;6.33;;;1.20;99.90;;;;;;2081537;28;20173;-64
2021/11/12 02:31:28;;;;;;;10.68;6.45;;;1.20;99.90;;;;;;2081384;28;20204;-65
2021/11/12 02:32:30;;;;;;;10.88;6.28;;;1.20;99.90;;;;;;2081615;28;20189;-64
2021/11/12 02:33:33;;;;;;;11.75;6.90;;;1.20;99.90;;;;;;2081688;28;20185;-64
2021/11/12 02:34:34;;;;;;;10.48;6.70;;;1.20;99.90;;;;;;2081507;28;20566;-65
2021/11/12 02:35:41;;;;;;;9.90;6.10;;;1.20;99.90;;;;;;2081445;28;20181;-64
2021/11/12 02:36:42;;;;;;;8.68;5.93;;;1.20;99.90;;;;;;2081500;28;20570;-65
2021/11/12 02:37:43;;;;;;;8.77;5.57;;;1.20;99.90;;;;;;2081567;28;20212;-64
2021/11/12 02:38:54;;;;;;;10.57;6.70;;;1.20;99.90;;;;;;2081439;28;20246;-65
2021/11/12 02:39:55;;;;;;;10.88;6.00;;;1.20;99.90;;;;;;2081671;28;20177;-64
2021/11/12 02:40:58;;;;;;;8.43;5.65;;;1.20;99.90;;;;;;2081493;28;20173;-65
2021/11/12 02:41:58;;;;;;;12.75;5.95;;;1.20;99.90;;;;;;2081283;28;20196;-65
2021/11/12 02:43:02;;;;;;;10.90;5.97;;;1.20;99.90;;;;;;2081470;28;20197;-64
2021/11/12 02:44:03;;;;;;;11.55;6.15;;;1.20;99.90;;;;;;2081055;28;20181;-65
2021/11/12 02:45:04;;;;;;;11.70;6.40;;;1.20;99.90;;;;;;2081232;28;20554;-65
2021/11/12 02:46:08;;;;;;;14.07;6.90;;;1.30;99.90;;;;;;2081426;28;20185;-64
2021/11/12 02:47:12;;;;;;;8.75;5.72;;;1.20;99.90;;;;;;2081378;28;20268;-65
2021/11/12 02:48:13;;;;;;;14.40;6.40;;;1.20;99.90;;;;;;2081369;28;20174;-65
2021/11/12 02:49:14;;;;;;;9.90;5.70;;;1.20;99.90;;;;;;2081492;28;20205;-65
2021/11/12 02:50:18;;;;;;;11.50;6.00;;;1.20;99.90;;;;;;2081296;28;20570;-65
2021/11/12 02:51:26;;;;;;;9.70;5.75;;;1.20;99.80;;;;;;2081066;28;20185;-65
2021/11/12 02:52:27;;;;;;;9.43;5.68;;;1.20;99.70;;;;;;2081334;28;20191;-64
2021/11/12 02:53:28;;;;;;;11.90;6.72;;;1.20;99.90;;;;;;2081429;28;20184;-65
2021/11/12 02:54:30;;;;;;;10.43;5.57;;;1.20;99.80;;;;;;2081459;28;20177;-64
2021/11/12 02:55:31;;;;;;;12.73;6.68;;;1.20;99.90;;;;;;2081405;28;20187;-64
2021/11/12 02:56:33;;;;;;;11.40;6.20;;;1.30;99.90;;;;;;2081266;28;20268;-66
2021/11/12 02:57:35;;;;;;;11.23;6.30;;;1.30;99.90;;;;;;2081434;28;20423;-65
2021/11/12 02:58:38;;;;;;;11.77;6.65;;;1.30;99.90;;;;;;2081243;28;20200;-65
2021/11/12 02:59:39;;;;;;;12.68;6.40;;;1.30;99.90;;;;;;2081339;28;20210;-64
2021/11/12 03:00:42;;;;;;;12.77;7.33;;;1.30;99.90;;;;;;2081315;28;20640;-65
2021/11/12 03:01:46;;;;;;;10.57;6.53;;;1.30;99.90;;;;;;2081062;28;20192;-64
2021/11/12 03:02:47;;;;;;;11.98;6.57;;;1.30;99.90;;;;;;2081288;28;20609;-66
2021/11/12 03:03:48;;;;;;;10.97;6.17;;;1.30;99.90;;;;;;2081430;28;20178;-65
2021/11/12 03:04:48;;;;;;;10.60;6.23;;;1.30;99.90;;;;;;2081229;28;20619;-65
2021/11/12 03:05:49;;;;;;;10.07;6.60;;;1.30;99.90;;;;;;2081351;28;20181;-65
2021/11/12 03:06:50;;;;;;;8.27;5.97;;;1.30;99.90;;;;;;2081337;28;20702;-65
2021/11/12 03:07:51;;;;;;;10.97;6.23;;;1.30;99.90;;;;;;2081231;28;20264;-65
2021/11/12 03:08:52;;;;;;;9.80;5.90;;;1.30;99.90;;;;;;2081072;28;20656;-64
2021/11/12 03:09:54;;;;;;;10.63;6.45;;;1.30;99.90;;;;;;2080575;28;20226;-64
2021/11/12 03:10:58;;;;;;;9.63;5.90;;;1.20;99.90;;;;;;2080475;28;20567;-65
2021/11/12 03:12:02;;;;;;;10.75;6.55;;;1.30;99.90;;;;;;2081325;28;20185;-64
2021/11/12 03:13:03;;;;;;;15.13;7.38;;;1.30;99.90;;;;;;2081102;28;20359;-65
2021/11/12 03:14:09;;;;;;;10.00;6.75;;;1.30;99.90;;;;;;2081299;28;20177;-65
2021/11/12 03:15:11;;;;;;;10.75;7.20;;;1.30;99.90;;;;;;2081180;28;20242;-65
2021/11/12 03:16:14;;;;;;;13.25;6.88;;;1.30;99.90;;;;;;2081284;28;20554;-65
2021/11/12 03:17:15;;;;;;;12.85;7.15;;;1.30;99.90;;;;;;2081291;28;20193;-65
2021/11/12 03:18:17;;;;;;;14.27;7.00;;;1.30;99.90;;;;;;2081260;28;20694;-65
2021/11/12 03:19:24;;;;;;;13.55;6.40;;;1.30;99.90;;;;;;2081341;28;20161;-65
2021/11/12 03:20:28;;;;;;;14.20;7.05;;;1.30;99.90;;;;;;2081219;28;20559;-65
2021/11/12 03:21:29;;;;;;;13.77;6.47;;;1.30;99.90;;;;;;2080461;28;20177;-65
2021/11/12 03:22:36;;;;;;;11.70;7.35;;;1.30;99.90;;;;;;2080442;28;20184;-65
2021/11/12 03:24:25;;;;;;;13.52;6.72;;;1.30;99.90;;;;;;2081088;28;20606;-64
2021/11/12 03:25:04;;;;;;;11.90;6.60;;;1.30;99.90;;;;;;2083890;28;20267;-65
2021/11/12 03:31:26;;;;;;;11.23;6.93;;;1.20;99.90;;;;;;2081048;28;20210;-65
2021/11/12 03:56:30;;;;;;;8.98;5.90;;;1.20;99.90;;;;;;2081066;28;20181;-65
2021/11/12 03:56:32;;;;;;;13.10;6.80;;;1.30;99.90;;;;;;2066901;28;20178;-65
2021/11/12 03:56:48;;;;;;;8.63;5.20;;;1.30;99.90;;;;;;2082519;28;20192;-66
2021/11/12 04:00:45;;;;;;;9.70;6.18;;;1.30;99.90;;;;;;2082722;28;20267;-66
2021/11/12 04:01:55;;;;;;;10.18;6.78;;;1.30;99.90;;;;;;2082641;28;20180;-64
2021/11/12 04:04:14;;;;;;;10.63;6.60;;;1.40;99.90;;;;;;2082852;28;20637;-64
2021/11/12 04:06:32;;;;;;;12.45;6.78;;;1.40;99.90;;;;;;2082754;28;20184;-65
2021/11/12 04:20:50;;;;;;;11.63;6.35;;;1.20;99.90;;;;;;2082921;28;20173;-65
2021/11/12 04:31:08;;;;;;;12.30;6.05;;;1.10;99.90;;;;;;2082551;28;20188;-64
2021/11/12 04:49:38;;;;;;;8.88;5.47;;;1.20;99.90;;;;;;2082358;28;20173;-65
2021/11/12 05:44:34;;;;;;;15.38;7.47;;;1.10;99.90;;;;;;2081890;28;20233;-65
2021/11/12 05:46:05;;;;;;;14.48;7.05;;;1.20;99.90;;;;;;2081899;28;20184;-65
2021/11/12 05:50:36;;;;;;;15.45;7.82;;;1.20;99.90;;;;;;2081762;28;20208;-65
2021/11/12 05:55:22;;;;;;;13.48;7.75;;;1.20;99.90;;;;;;2081915;28;20204;-65
2021/11/12 05:56:23;;;;;;;16.47;8.40;;;1.30;99.90;;;;;;2081831;28;20169;-65
2021/11/12 05:57:24;;;;;;;15.25;8.35;;;1.20;99.90;;;;;;2081937;28;20200;-65
2021/11/12 05:58:25;;;;;;;14.17;8.77;;;1.30;99.90;;;;;;2081653;28;20197;-65
2021/11/12 05:59:26;;;;;;;15.80;8.57;;;1.30;99.90;;;;;;2081691;28;20181;-64
2021/11/12 06:00:27;;;;;;;13.02;8.05;;;1.30;99.90;;;;;;2081698;28;20180;-65
2021/11/12 06:01:28;;;;;;;15.40;7.83;;;1.20;99.90;;;;;;2081428;28;20230;-65
2021/11/12 06:02:28;;;;;;;13.87;7.50;;;1.20;99.90;;;;;;2081678;28;20177;-65
2021/11/12 06:03:30;;;;;;;13.60;7.30;;;1.20;99.90;;;;;;2081764;28;20404;-66
2021/11/12 06:04:32;;;;;;;14.45;6.82;;;1.20;99.90;;;;;;2081830;28;20189;-64
2021/11/12 06:05:32;;;;;;;10.93;7.05;;;1.20;99.90;;;;;;2081707;28;20195;-65
2021/11/12 06:06:34;;;;;;;11.63;7.00;;;1.20;99.90;;;;;;2081818;28;20188;-65
2021/11/12 06:07:35;;;;;;;13.70;6.50;;;1.30;99.90;;;;;;2081684;28;20173;-65
2021/11/12 06:08:37;;;;;;;11.80;6.82;;;1.20;99.90;;;;;;2081554;28;20193;-65
2021/11/12 06:09:38;;;;;;;12.02;7.82;;;1.20;99.90;;;;;;2081669;28;20217;-65
2021/11/12 06:10:38;;;;;;;13.57;7.63;;;1.20;99.90;;;;;;2081670;28;20185;-64
2021/11/12 06:11:39;;;;;;;16.27;7.03;;;1.20;99.90;;;;;;2081516;28;20181;-64
2021/11/12 06:12:40;;;;;;;17.33;10.90;;;1.20;99.90;;;;;;2081639;28;20697;-64
2021/11/12 06:13:41;;;;;;;16.05;8.65;;;1.20;99.90;;;;;;2081649;28;20180;-65
2021/11/12 06:14:42;;;;;;;14.80;7.63;;;1.20;99.90;;;;;;2081280;28;20185;-66
2021/11/12 06:15:43;;;;;;;13.07;7.10;;;1.20;99.90;;;;;;2081752;28;20644;-65
2021/11/12 06:16:43;;;;;;;10.57;7.00;;;1.30;99.90;;;;;;2081711;28;20466;-64
2021/11/12 06:17:45;;;;;;;12.17;7.47;;;1.30;99.90;;;;;;2081688;28;20270;-64
2021/11/12 06:18:46;;;;;;;14.23;7.30;;;1.20;99.90;;;;;;2081183;28;20247;-65
2021/11/12 06:19:47;;;;;;;14.87;8.23;;;1.20;99.90;;;;;;2081206;28;20339;-65
2021/11/12 06:20:48;;;;;;;13.95;7.55;;;1.20;99.90;;;;;;2081637;28;20719;-65
2021/11/12 06:21:49;;;;;;;12.90;7.90;;;1.20;99.90;;;;;;2081404;28;20239;-65
2021/11/12 06:22:50;;;;;;;13.07;7.47;;;1.20;99.90;;;;;;2081737;28;20183;-64
2021/11/12 06:23:51;;;;;;;12.53;7.63;;;1.20;99.90;;;;;;2081581;28;20177;-64
2021/11/12 06:24:52;;;;;;;11.20;7.87;;;1.20;99.90;;;;;;2081735;28;20169;-64
2021/11/12 06:25:53;;;;;;;11.43;7.63;;;1.20;99.90;;;;;;2081497;28;20670;-64
2021/11/12 06:26:54;;;;;;;11.52;7.82;;;1.20;99.90;;;;;;2081806;28;20185;-65
2021/11/12 06:27:54;;;;;;;14.00;8.50;;;1.20;99.90;;;;;;2081697;28;20540;-64
2021/11/12 06:28:58;;;;;;;13.67;8.30;;;1.20;99.90;;;;;;2081610;28;20269;-66
2021/11/12 06:29:59;;;;;;;11.80;7.45;;;1.20;99.90;;;;;;2081683;28;20246;-65
2021/11/12 06:31:00;;;;;;;13.50;9.07;;;1.20;99.90;;;;;;2081421;28;20223;-65
2021/11/12 06:32:01;;;;;;;17.77;9.82;;;1.20;99.90;;;;;;2081856;28;20189;-65
2021/11/12 06:33:03;;;;;;;16.63;9.40;;;1.20;99.90;;;;;;2081474;28;20216;-65
2021/11/12 06:34:04;;;;;;;18.25;10.27;;;1.20;99.90;;;;;;2081576;28;20180;-65
2021/11/12 06:35:05;;;;;;;16.63;9.00;;;1.20;99.90;;;;;;2081670;28;20285;-64
2021/11/12 06:36:06;;;;;;;14.77;8.75;;;1.20;99.90;;;;;;2081402;28;20424;-65
2021/11/12 06:37:07;;;;;;;12.73;8.05;;;1.20;99.90;;;;;;2081673;28;20200;-65
2021/11/12 06:38:10;;;;;;;16.27;8.93;;;1.20;99.90;;;;;;2081481;28;20200;-65
2021/11/12 07:28:02;;;;;;;7.82;4.82;;;2.00;99.90;;;;;;2048018;28;20271;-64
2021/11/12 07:29:04;;;;;;;9.75;4.53;;;2.10;99.90;;;;;;2039436;28;20220;-64
2021/11/12 07:30:09;;;;;;;8.90;5.50;;;2.20;99.90;;;;;;2043331;28;20196;-64
2021/11/12 07:31:11;;;;;;;8.50;4.93;;;2.20;99.90;;;;;;2043907;28;20632;-64
2021/11/12 07:32:13;;;;;;;15.63;5.40;;;2.20;99.90;;;;;;2049130;28;20200;-64
2021/11/12 07:33:14;;;;;;;9.45;5.18;;;2.20;99.90;;;;;;2048906;28;20470;-64
2021/11/12 07:34:14;;;;;;;9.70;4.68;;;2.30;99.90;;;;;;2048635;29;20203;-64
2021/11/12 07:35:21;;;;;;;9.77;5.53;;;2.30;99.90;;;;;;2049031;29;20227;-64
2021/11/12 07:36:23;;;;;;;8.70;5.20;;;2.40;99.90;;;;;;2050725;28;20161;-64
2021/11/12 07:37:28;;;;;;;8.13;4.90;;;2.40;99.80;;;;;;2056966;28;20205;-64
2021/11/12 07:38:44;;;;;;;7.72;4.82;;;2.40;99.70;;;;;;2057087;28;20535;-64
2021/11/12 07:46:35;;;;;;;11.67;6.87;;;2.70;99.10;;;;;;2056525;28;20207;-64
2021/11/12 07:47:37;;;;;;;11.85;6.07;;;2.70;99.00;;;;;;2056903;28;20579;-64
2021/11/12 07:48:39;;;;;;;13.48;6.75;;;2.70;99.00;;;;;;2057108;28;20679;-63
2021/11/12 07:49:48;;;;;;;8.65;5.72;;;2.80;99.00;;;;;;2056967;28;20184;-64
2021/11/12 07:50:50;;;;;;;10.05;5.97;;;2.80;98.90;;;;;;2057206;28;20195;-64
2021/11/12 07:51:50;;;;;;;8.60;5.70;;;2.80;98.80;;;;;;2056920;28;20187;-64
2021/11/12 07:52:51;;;;;;;6.93;5.50;;;2.90;98.80;;;;;;2056980;28;20211;-64
2021/11/12 07:53:52;;;;;;;7.63;5.40;;;2.90;98.70;;;;;;2057137;28;20210;-64
2021/11/12 07:54:54;;;;;;;8.90;4.70;;;2.90;98.60;;;;;;2057242;28;20183;-64
2021/11/12 09:50:57;;;;;;;11.80;8.00;;;14.70;78.50;;;;;;2053805;28;20509;-63
2021/11/12 09:51:59;;;;;;;14.53;9.57;;;15.10;73.80;;;;;;2057564;28;20426;-63
2021/11/12 09:53:00;;;;;;;13.03;8.90;;;15.40;65.90;;;;;;2064588;28;20210;-63
2021/11/12 09:54:02;;;;;;;13.20;9.73;;;15.60;66.80;;;;;;2056792;28;20794;-63
2021/11/12 09:55:05;;;;;;;13.20;9.37;;;15.70;69.00;;;;;;2056990;28;20426;-63
2021/11/12 09:56:09;;;;;;;14.17;10.27;;;15.80;69.00;;;;;;2057468;28;20419;-63
2021/11/12 09:57:11;;;;;;;14.30;9.93;;;16.00;67.90;;;;;;2056870;28;20497;-63
2021/11/12 09:58:14;;;;;;;13.33;8.93;;;16.20;67.60;;;;;;2057551;28;20921;-63
2021/11/12 09:59:14;;;;;;;15.10;10.07;;;16.40;67.00;;;;;;2057337;28;20505;-63
2021/11/12 10:00:21;;;;;;;11.87;8.87;;;16.50;64.60;;;;;;2053832;28;21086;-62
2021/11/12 10:01:28;;;;;;;13.87;9.07;;;16.40;64.50;;;;;;2049390;28;20192;-63
2021/11/12 10:02:32;;;;;;;17.93;12.03;;;16.60;63.70;;;;;;2049590;28;20455;-63
2021/11/12 10:03:34;;;;;;;16.57;10.07;;;16.70;63.20;;;;;;2049471;29;20486;-63
2021/11/12 10:04:35;;;;;;;22.43;13.33;;;16.80;62.00;;;;;;2049565;29;20498;-63
2021/11/12 10:05:46;;;;;;;16.03;11.30;;;16.80;62.70;;;;;;2049414;29;20511;-63
2021/11/12 10:06:47;;;;;;;18.60;10.83;;;17.00;62.20;;;;;;2048902;28;20435;-63
2021/11/12 10:07:47;;;;;;;15.03;9.33;;;17.00;62.10;;;;;;2049412;28;20416;-64
2021/11/12 10:08:49;;;;;;;15.37;9.23;;;17.20;62.20;;;;;;2049591;29;20176;-63
2021/11/12 10:10:24;;;;;;;12.37;8.40;;;17.40;60.90;;;;;;2049318;29;20176;-63
2021/11/12 10:11:29;;;;;;;12.27;7.90;;;17.70;58.00;;;;;;2040437;29;20440;-64
2021/11/12 10:12:49;;;;;;;13.00;7.60;;;17.80;57.60;;;;;;2047604;29;20412;-63
2021/11/12 10:13:59;;;;;;;9.40;6.97;;;18.00;57.60;;;;;;2049514;29;20514;-63
2021/11/12 10:15:12;;;;;;;11.87;6.40;;;18.20;56.60;;;;;;2055954;28;20418;-63
2021/11/12 10:17:22;;;;;;;9.80;6.57;;;18.70;54.60;;;;;;2057476;28;20848;-63
2021/11/12 10:18:22;;;;;;;9.53;6.27;;;18.90;54.30;;;;;;2057508;28;20414;-63
2021/11/12 10:19:25;;;;;;;9.20;5.80;;;19.10;53.70;;;;;;2057423;28;20442;-63
2021/11/12 10:20:26;;;;;;;9.30;5.60;;;19.10;52.80;;;;;;2057280;28;20210;-63
2021/11/12 10:21:29;;;;;;;6.23;4.47;;;19.10;52.10;;;;;;2057324;28;20414;-64
2021/11/12 10:22:37;;;;;;;7.17;5.07;;;19.00;52.90;;;;;;2057371;28;20179;-63
2021/11/12 10:23:42;;;;;;;6.70;4.43;;;19.10;53.10;;;;;;2057190;28;20917;-63
2021/11/12 10:24:44;;;;;;;5.73;4.33;;;19.30;52.60;;;;;;2057319;28;20934;-63
2021/11/12 10:26:01;;;;;;;8.83;6.40;;;19.30;52.00;;;;;;2057185;28;20417;-63
2021/11/12 10:27:19;;;;;;;7.50;5.00;;;19.40;50.70;;;;;;2056703;28;21011;-64
2021/11/12 10:28:41;;;;;;;5.67;4.33;;;19.80;50.00;;;;;;2057266;28;20935;-63
2021/11/12 10:29:53;;;;;;;6.33;4.70;;;20.10;49.50;;;;;;2057568;28;20421;-63
2021/11/12 10:30:53;;;;;;;7.40;4.00;;;20.40;46.90;;;;;;2057169;28;20509;-63
2021/11/12 10:31:59;;;;;;;8.83;4.30;;;20.50;45.80;;;;;;2057292;28;20794;-63
2021/11/12 10:32:59;;;;;;;7.03;3.77;;;20.80;46.00;;;;;;2057352;28;20215;-63
2021/11/12 10:34:00;;;;;;;6.20;4.00;;;21.00;46.20;;;;;;2057348;28;20414;-64
2021/11/12 10:35:09;;;;;;;4.77;3.90;;;21.20;43.40;;;;;;2057041;28;20175;-64
2021/11/12 10:36:10;;;;;;;10.87;4.00;;;21.30;42.60;;;;;;2056897;28;20183;-64
2021/11/12 10:37:20;;;;;;;5.73;3.83;;;21.30;42.80;;;;;;2056785;28;20443;-63
2021/11/12 10:38:20;;;;;;;4.83;3.70;;;21.70;41.40;;;;;;2057262;28;20257;-63
2021/11/12 10:39:34;;;;;;;6.17;4.20;;;21.90;39.90;;;;;;2057244;28;20918;-63
2021/11/12 10:40:35;;;;;;;6.50;4.10;;;22.00;40.90;;;;;;2057156;28;20269;-63
2021/11/12 10:41:36;;;;;;;8.10;3.70;;;21.70;40.50;;;;;;2057254;28;20430;-63
2021/11/12 10:42:41;;;;;;;7.73;4.60;;;21.70;41.10;;;;;;2057261;28;20213;-63
2021/11/12 10:43:42;;;;;;;6.07;4.07;;;21.70;40.60;;;;;;2057242;28;20840;-63
2021/11/12 10:44:49;;;;;;;6.37;4.73;;;21.80;41.10;;;;;;2057075;28;20419;-63
2021/11/12 10:45:50;;;;;;;7.07;4.87;;;21.70;41.50;;;;;;2057237;28;20179;-63
2021/11/12 10:46:51;;;;;;;6.20;4.20;;;22.10;40.90;;;;;;2048012;28;20637;-64
2021/11/12 10:48:08;;;;;;;6.17;4.30;;;22.30;40.40;;;;;;2048842;28;20519;-64
2021/11/12 10:49:35;;;;;;;7.37;3.60;;;22.70;36.60;;;;;;2057123;28;20422;-62
2021/11/12 10:50:40;;;;;;;5.93;3.50;;;22.80;37.60;;;;;;2057253;28;20912;-63
2021/11/12 10:51:57;;;;;;;5.23;3.63;;;23.00;37.50;;;;;;2057144;28;20454;-63
2021/11/12 10:53:10;;;;;;;5.60;3.90;;;23.10;36.90;;;;;;2057010;28;20462;-63
2021/11/12 10:54:11;;;;;;;4.63;3.77;;;23.10;38.00;;;;;;2057225;28;20421;-63
2021/11/12 10:55:22;;;;;;;4.77;3.47;;;22.50;36.60;;;;;;2057108;28;20466;-64
2021/11/12 10:56:47;;;;;;;6.87;3.73;;;22.40;38.20;;;;;;2056516;28;20179;-64
2021/11/12 10:57:51;;;;;;;6.67;3.87;;;22.40;38.80;;;;;;2057057;28;20423;-64
2021/11/12 10:59:05;;;;;;;6.17;3.37;;;22.40;37.20;;;;;;2057171;28;20178;-63
2021/11/12 11:00:10;;;;;;;6.20;3.77;;;22.50;37.80;;;;;;2057137;28;20738;-64
2021/11/12 11:01:12;;;;;;;8.03;3.33;;;22.60;36.60;;;;;;2057209;28;20435;-63
2021/11/12 11:02:22;;;;;;;5.70;3.80;;;22.70;36.70;;;;;;2057121;28;20423;-63
2021/11/12 11:03:23;;;;;;;7.50;3.60;;;22.30;36.90;;;;;;2057022;28;20930;-63
2021/11/12 11:04:26;;;;;;;6.33;3.70;;;22.00;37.60;;;;;;2057047;28;20705;-64
2021/11/12 11:05:42;;;;;;;5.83;3.53;;;21.50;37.30;;;;;;2056437;28;20187;-63
2021/11/12 11:06:43;;;;;;;6.97;3.90;;;21.50;35.80;;;;;;2056439;28;20442;-63
2021/11/12 11:07:56;;;;;;;5.00;3.50;;;21.40;36.90;;;;;;2056944;28;20661;-63
2021/11/12 11:08:57;;;;;;;7.50;4.13;;;21.50;38.90;;;;;;2057113;28;20183;-63
2021/11/12 11:09:58;;;;;;;5.33;3.43;;;21.80;36.80;;;;;;2056947;28;20266;-63
2021/11/12 11:11:06;;;;;;;6.37;3.50;;;21.70;35.80;;;;;;2057194;28;20183;-63
2021/11/12 11:12:07;;;;;;;3.60;3.30;;;22.00;38.20;;;;;;2056950;28;20175;-63
2021/11/12 11:13:15;;;;;;;4.60;3.60;;;22.30;38.60;;;;;;2056837;28;20693;-63
2021/11/12 11:14:30;;;;;;;6.30;3.77;;;22.80;37.40;;;;;;2056855;28;20676;-63
2021/11/12 11:15:35;;;;;;;7.47;4.50;;;22.90;35.40;;;;;;2056954;28;20460;-64
2021/11/12 11:16:37;;;;;;;6.43;3.70;;;22.80;36.80;;;;;;2056206;28;20493;-63
2021/11/12 11:17:48;;;;;;;10.70;3.73;;;22.40;36.70;;;;;;2056941;28;20928;-63
2021/11/12 11:18:55;;;;;;;9.67;3.57;;;23.00;35.10;;;;;;2048424;29;20419;-64
2021/11/12 11:19:56;;;;;;;6.23;3.70;;;23.30;35.60;;;;;;2049829;28;20408;-63
2021/11/12 11:22:10;;;;;;;5.80;3.60;;;23.20;35.70;;;;;;2056934;28;20237;-63
2021/11/12 11:23:11;;;;;;;5.33;3.60;;;23.40;34.10;;;;;;2057053;28;20433;-63
2021/11/12 11:24:12;;;;;;;6.90;3.53;;;23.80;32.40;;;;;;2056888;28;20676;-63
2021/11/12 11:25:14;;;;;;;5.80;3.67;;;23.70;31.80;;;;;;2056982;28;20183;-64
2021/11/12 11:26:24;;;;;;;6.80;3.90;;;23.10;33.10;;;;;;2056360;28;20645;-63